Arock, Oregon
Current Conditions -  °F | °C
As of 9:55 PM on Friday 28 Nov 2014 (Local Time) from KMAN Reporting Station
Broken Clouds Broken Clouds  
Wind Chill: 12°   Ceiling: 7500
Heat Index: 12°   Visibility: 10mi
Dew Point:   Wind: 5mph
Humidity: 47%   Direction: 220°SW
Pressure: 29.62"   Gusts: NA
Location:  42.91°N, 117.53°W
Report Text: KMAN 290455Z AUTO 22004KT 10SM BKN075 12/01 A2962 RMK AO1
Loading
Personal Weather Stations






























Interactive Weather Map New forecast layout! Learn more

10-Day Weather Forecast

Advertisements
Track Severe Weather on mobile